createdAt,value
2023-04-23T00:00:19.507Z,4.43
2023-04-23T00:02:50.338Z,4.57
2023-04-23T00:05:19.011Z,4.50
2023-04-23T00:07:52.182Z,4.97
2023-04-23T00:10:21.108Z,4.07
2023-04-23T00:12:50.515Z,4.07
2023-04-23T00:15:21.255Z,4.80
2023-04-23T00:17:50.596Z,4.37
2023-04-23T00:20:19.479Z,4.93
2023-04-23T00:22:49.446Z,3.97
2023-04-23T00:25:17.882Z,4.77
2023-04-23T00:27:48.076Z,4.40
2023-04-23T00:30:17.067Z,4.90
2023-04-23T00:32:48.843Z,4.20
2023-04-23T00:35:18.719Z,4.57
2023-04-23T00:37:49.239Z,4.63
2023-04-23T00:40:18.189Z,4.53
2023-04-23T00:42:47.476Z,4.60
2023-04-23T00:45:16.292Z,4.10
2023-04-23T00:47:45.897Z,3.90
2023-04-23T00:50:15.522Z,4.67
2023-04-23T00:52:44.349Z,4.87
2023-04-23T00:55:14.484Z,5.87
2023-04-23T00:57:43.734Z,4.40
2023-04-23T01:00:15.878Z,4.33
2023-04-23T01:02:44.937Z,4.40
2023-04-23T01:05:13.877Z,4.50
2023-04-23T01:07:43.387Z,4.90
2023-04-23T01:10:14.448Z,5.00
2023-04-23T01:12:43.548Z,3.57
2023-04-23T01:15:12.953Z,3.80
2023-04-23T01:17:41.872Z,4.40
2023-04-23T01:20:11.463Z,4.97
2023-04-23T01:22:41.842Z,5.20
2023-04-23T01:25:11.526Z,5.23
2023-04-23T01:27:40.567Z,5.10
2023-04-23T01:30:17.977Z,5.53
2023-04-23T01:32:47.705Z,4.40
2023-04-23T01:35:16.286Z,5.00
2023-04-23T01:37:46.859Z,4.47
2023-04-23T01:40:15.976Z,3.90
2023-04-23T01:42:45.173Z,4.30
2023-04-23T01:45:14.285Z,4.30
2023-04-23T01:47:43.241Z,4.80
2023-04-23T01:50:12.104Z,4.53
2023-04-23T01:52:41.892Z,4.73
2023-04-23T01:55:12.095Z,4.90
2023-04-23T01:57:41.929Z,4.93
2023-04-23T02:00:12.544Z,4.23
2023-04-23T02:02:42.824Z,3.90
2023-04-23T02:05:13.685Z,4.50
2023-04-23T02:07:42.638Z,4.67
2023-04-23T02:10:13.865Z,5.07
2023-04-23T02:12:42.768Z,4.50
2023-04-23T02:15:12.197Z,4.43
2023-04-23T02:17:42.145Z,4.33
2023-04-23T02:20:11.387Z,4.20
2023-04-23T02:22:41.056Z,5.27
2023-04-23T02:25:10.772Z,4.20
2023-04-23T02:27:40.639Z,4.40
2023-04-23T02:30:10.476Z,3.93
2023-04-23T02:32:39.938Z,4.40
2023-04-23T02:35:09.660Z,4.07
2023-04-23T02:37:39.925Z,5.00
2023-04-23T02:40:09.577Z,3.93
2023-04-23T02:42:38.602Z,5.03
2023-04-23T02:45:09.710Z,4.00
2023-04-23T02:47:38.331Z,5.37
2023-04-23T02:50:08.173Z,5.27
2023-04-23T02:52:36.991Z,4.63
2023-04-23T02:55:07.329Z,4.07
2023-04-23T02:57:35.970Z,4.47
2023-04-23T03:00:07.334Z,4.97
2023-04-23T03:02:40.163Z,4.10
2023-04-23T03:05:10.080Z,4.07
2023-04-23T03:07:39.024Z,3.50
2023-04-23T03:10:08.956Z,4.20
2023-04-23T03:12:37.479Z,4.20
2023-04-23T03:15:07.137Z,4.87
2023-04-23T03:17:35.687Z,3.80
2023-04-23T03:20:07.416Z,4.03
2023-04-23T03:22:36.363Z,4.80
2023-04-23T03:25:05.423Z,4.23
2023-04-23T03:27:34.119Z,4.27
2023-04-23T03:30:02.935Z,6.50
2023-04-23T03:32:31.896Z,4.67
2023-04-23T03:35:01.118Z,5.00
2023-04-23T03:37:35.711Z,4.70
2023-04-23T03:40:08.539Z,4.67
2023-04-23T03:42:37.514Z,6.80
2023-04-23T03:45:07.732Z,7.00
2023-04-23T03:47:37.082Z,9.13
2023-04-23T03:50:07.016Z,7.67
2023-04-23T03:52:37.429Z,7.30
2023-04-23T03:55:06.660Z,6.80
2023-04-23T03:57:35.824Z,4.70
2023-04-23T04:00:05.231Z,5.40
2023-04-23T04:02:34.036Z,6.60
2023-04-23T04:05:03.680Z,8.30
2023-04-23T04:07:32.540Z,6.03
2023-04-23T04:10:03.522Z,6.50
2023-04-23T04:12:32.154Z,5.10
2023-04-23T04:15:01.275Z,4.47
2023-04-23T04:17:29.699Z,5.20
2023-04-23T04:19:58.739Z,5.30
2023-04-23T04:22:27.692Z,6.87
2023-04-23T04:24:57.784Z,6.80
2023-04-23T04:27:28.054Z,7.20
2023-04-23T04:29:56.698Z,7.87
2023-04-23T04:32:25.723Z,9.13
2023-04-23T04:34:54.096Z,8.43
2023-04-23T04:37:23.559Z,6.20
2023-04-23T04:39:52.796Z,5.80
2023-04-23T04:42:21.754Z,4.83
2023-04-23T04:44:53.831Z,4.10
2023-04-23T04:47:22.849Z,5.43
2023-04-23T04:49:51.452Z,5.63
2023-04-23T04:52:20.243Z,4.67
2023-04-23T04:54:48.912Z,6.20
2023-04-23T04:57:17.690Z,13.60
2023-04-23T04:59:47.185Z,9.03
2023-04-23T05:02:17.233Z,7.10
2023-04-23T05:04:46.090Z,6.47
2023-04-23T05:07:15.033Z,5.07
2023-04-23T05:09:45.105Z,4.10
2023-04-23T05:12:14.488Z,3.83
2023-04-23T05:14:43.253Z,4.47
2023-04-23T05:17:12.486Z,4.10
2023-04-23T05:19:45.296Z,4.57
2023-04-23T05:22:13.916Z,5.30
2023-04-23T05:24:42.795Z,5.17
2023-04-23T05:27:12.082Z,4.10
2023-04-23T05:29:40.440Z,4.80
2023-04-23T05:32:09.367Z,4.50
2023-04-23T05:34:37.864Z,4.67
2023-04-23T05:37:07.957Z,5.00
2023-04-23T05:39:36.598Z,4.03
2023-04-23T05:42:05.535Z,5.90
2023-04-23T05:44:33.960Z,7.30
2023-04-23T05:47:03.206Z,6.00
2023-04-23T05:49:31.918Z,4.60
2023-04-23T05:52:00.723Z,5.03
2023-04-23T05:54:30.743Z,5.80
2023-04-23T05:57:01.219Z,5.20
2023-04-23T05:59:29.798Z,3.97
2023-04-23T06:01:58.566Z,5.27
2023-04-23T06:04:27.722Z,7.50
2023-04-23T06:06:56.626Z,7.30
2023-04-23T06:09:25.045Z,5.83
2023-04-23T06:11:57.342Z,5.70
2023-04-23T06:14:25.745Z,7.50
2023-04-23T06:16:54.639Z,8.17
2023-04-23T06:19:25.284Z,7.23
2023-04-23T06:21:54.115Z,8.40
2023-04-23T06:24:23.010Z,9.23
2023-04-23T06:26:51.564Z,12.30
2023-04-23T06:29:22.348Z,12.27
2023-04-23T06:31:51.023Z,8.80
2023-04-23T06:34:20.043Z,9.57
2023-04-23T06:36:48.557Z,6.70
2023-04-23T06:39:17.513Z,5.57
2023-04-23T06:41:47.052Z,5.87
2023-04-23T06:44:15.488Z,10.53
2023-04-23T06:46:46.232Z,8.53
2023-04-23T06:49:17.357Z,21.43
2023-04-23T06:51:45.977Z,8.83
2023-04-23T06:54:14.582Z,7.27
2023-04-23T06:56:43.389Z,6.10
2023-04-23T06:59:12.683Z,5.80
2023-04-23T07:01:41.557Z,5.17
2023-04-23T07:04:11.807Z,5.43
2023-04-23T07:06:40.687Z,5.67
2023-04-23T07:09:09.590Z,5.50
2023-04-23T07:11:41.263Z,4.80
2023-04-23T07:14:10.195Z,5.47
2023-04-23T07:16:39.112Z,4.90
2023-04-23T07:19:07.898Z,4.90
2023-04-23T07:21:38.262Z,6.67
2023-04-23T07:24:08.484Z,5.80
2023-04-23T07:26:37.500Z,5.57
2023-04-23T07:29:08.208Z,5.87
2023-04-23T07:31:36.884Z,4.33
2023-04-23T07:34:06.937Z,5.80
2023-04-23T07:36:37.779Z,5.23
2023-04-23T07:39:08.171Z,5.87
2023-04-23T07:41:37.021Z,5.20
2023-04-23T07:44:05.811Z,5.67
2023-04-23T07:46:35.023Z,5.80
2023-04-23T07:49:04.104Z,5.80
2023-04-23T07:51:32.815Z,5.47
2023-04-23T07:54:01.522Z,4.93
2023-04-23T07:56:32.932Z,5.00
2023-04-23T07:59:02.426Z,5.87
2023-04-23T08:01:31.144Z,4.70
2023-04-23T08:04:00.998Z,4.40
2023-04-23T08:06:31.747Z,4.30
2023-04-23T08:09:00.448Z,4.20
2023-04-23T08:11:30.275Z,4.10
2023-04-23T08:14:01.642Z,4.43
2023-04-23T08:16:31.268Z,3.63
2023-04-23T08:19:05.385Z,4.50
2023-04-23T08:21:34.786Z,3.97
2023-04-23T08:24:04.642Z,4.87
2023-04-23T08:26:33.207Z,3.87
2023-04-23T08:29:03.593Z,4.27
2023-04-23T08:31:32.487Z,4.47
2023-04-23T08:34:01.559Z,4.67
2023-04-23T08:36:30.482Z,5.30
2023-04-23T08:39:00.990Z,4.47
2023-04-23T08:41:37.006Z,4.67
2023-04-23T08:44:11.670Z,5.10
2023-04-23T08:46:43.889Z,5.47
2023-04-23T08:49:15.842Z,4.77
2023-04-23T08:51:48.103Z,4.53
2023-04-23T08:54:20.435Z,5.10
2023-04-23T08:56:49.656Z,4.80
2023-04-23T08:59:21.783Z,4.17
2023-04-23T09:01:52.896Z,4.67
2023-04-23T09:04:21.998Z,4.23
2023-04-23T09:06:54.306Z,4.10
2023-04-23T09:09:24.523Z,4.30
2023-04-23T09:11:54.880Z,3.90
2023-04-23T09:14:26.752Z,4.83
2023-04-23T09:16:55.986Z,5.00
2023-04-23T09:19:28.058Z,4.07
2023-04-23T09:21:57.005Z,4.30
2023-04-23T09:24:26.803Z,4.70
2023-04-23T09:26:57.256Z,5.00
2023-04-23T09:29:27.406Z,4.63
2023-04-23T09:31:57.516Z,4.70
2023-04-23T09:34:27.884Z,4.40
2023-04-23T09:36:57.705Z,4.50
2023-04-23T09:39:26.803Z,4.27
2023-04-23T09:41:55.635Z,4.67
2023-04-23T09:44:24.754Z,3.90
2023-04-23T09:46:57.126Z,4.40
2023-04-23T09:49:27.372Z,3.97
2023-04-23T09:51:56.227Z,4.60
2023-04-23T09:54:27.624Z,3.93
2023-04-23T09:56:57.884Z,4.90
2023-04-23T09:59:39.578Z,3.83
2023-04-23T10:02:17.008Z,4.00
2023-04-23T10:04:45.964Z,4.30
2023-04-23T10:07:19.843Z,3.77
2023-04-23T10:10:00.617Z,4.20
2023-04-23T10:12:46.484Z,4.30
2023-04-23T10:15:18.306Z,3.60
2023-04-23T10:17:48.851Z,4.13
2023-04-23T10:20:18.157Z,3.27
2023-04-23T10:22:46.774Z,4.60
2023-04-23T10:25:15.644Z,3.90
2023-04-23T10:27:53.845Z,3.80
2023-04-23T10:30:23.414Z,4.33
2023-04-23T10:32:54.738Z,4.67
2023-04-23T10:35:23.948Z,3.70
2023-04-23T10:37:52.683Z,3.77
2023-04-23T10:40:25.934Z,3.53
2023-04-23T10:42:55.735Z,3.43
2023-04-23T10:45:25.833Z,3.40
2023-04-23T10:47:56.892Z,4.10
2023-04-23T10:50:27.614Z,3.43
2023-04-23T10:52:58.036Z,3.90
2023-04-23T10:55:28.386Z,3.83
2023-04-23T10:58:03.056Z,3.40
2023-04-23T11:00:47.854Z,3.40
2023-04-23T11:03:31.620Z,4.00
2023-04-23T11:06:03.635Z,3.90
2023-04-23T11:08:33.673Z,4.10
2023-04-23T11:11:03.927Z,3.40
2023-04-23T11:13:34.749Z,4.40
2023-04-23T11:16:16.691Z,3.67
2023-04-23T11:19:05.270Z,4.10
2023-04-23T11:22:08.662Z,3.93
2023-04-23T11:24:42.419Z,4.90
2023-04-23T11:27:12.561Z,3.80
2023-04-23T11:29:44.305Z,4.57
2023-04-23T11:32:14.780Z,3.80
2023-04-23T11:34:46.417Z,4.07
2023-04-23T11:37:16.396Z,4.20
2023-04-23T11:39:46.115Z,4.43
2023-04-23T11:42:15.426Z,5.03
2023-04-23T11:44:44.654Z,4.80
2023-04-23T11:47:14.494Z,3.97
2023-04-23T11:49:46.226Z,4.07
2023-04-23T11:52:16.558Z,5.20
2023-04-23T11:54:45.648Z,3.90
2023-04-23T11:57:14.817Z,3.83
2023-04-23T11:59:43.944Z,4.87
2023-04-23T12:02:15.615Z,6.07
2023-04-23T12:04:46.202Z,5.00
2023-04-23T12:07:25.980Z,4.57
2023-04-23T12:10:01.007Z,4.00
2023-04-23T12:12:35.630Z,4.17
2023-04-23T12:15:09.054Z,4.10
2023-04-23T12:17:37.995Z,4.10
2023-04-23T12:20:13.932Z,3.97
2023-04-23T12:22:44.765Z,4.17
2023-04-23T12:25:13.621Z,4.13
2023-04-23T12:27:42.725Z,4.43
2023-04-23T12:30:13.063Z,4.50
2023-04-23T12:32:42.931Z,3.50
2023-04-23T12:35:14.306Z,4.70
2023-04-23T12:37:43.033Z,4.03
2023-04-23T12:40:13.144Z,4.10
2023-04-23T12:42:42.083Z,4.73
2023-04-23T12:45:12.250Z,3.27
2023-04-23T12:47:41.874Z,4.13
2023-04-23T12:50:12.644Z,2.97
2023-04-23T12:52:43.592Z,4.03
2023-04-23T12:55:12.304Z,3.77
2023-04-23T12:57:43.726Z,3.17
2023-04-23T13:00:13.008Z,3.47
2023-04-23T13:02:41.790Z,3.60
2023-04-23T13:05:10.885Z,3.77
2023-04-23T13:07:42.982Z,3.50
2023-04-23T13:10:12.429Z,3.67
2023-04-23T13:12:41.640Z,4.20
2023-04-23T13:15:12.912Z,4.30
2023-04-23T13:17:41.849Z,3.80
2023-04-23T13:20:10.904Z,4.10
2023-04-23T13:22:41.561Z,3.73
2023-04-23T13:25:11.363Z,4.20
2023-04-23T13:27:41.054Z,3.27
2023-04-23T13:30:11.315Z,3.57
2023-04-23T13:32:41.792Z,3.60
2023-04-23T13:35:14.742Z,3.33
2023-04-23T13:37:45.137Z,4.20
2023-04-23T13:40:14.159Z,4.03
2023-04-23T13:42:43.222Z,4.00
2023-04-23T13:45:14.681Z,3.43
2023-04-23T13:47:44.026Z,3.53
2023-04-23T13:50:13.436Z,4.20
2023-04-23T13:52:45.972Z,3.60
2023-04-23T13:55:14.604Z,3.57
2023-04-23T13:57:43.428Z,3.53
2023-04-23T14:00:15.608Z,4.03
2023-04-23T14:02:44.502Z,4.87
2023-04-23T14:05:13.458Z,4.10
2023-04-23T14:07:42.722Z,4.70
2023-04-23T14:10:15.551Z,5.90
2023-04-23T14:12:44.854Z,6.10
2023-04-23T14:15:14.061Z,5.83
2023-04-23T14:17:44.460Z,5.40
2023-04-23T14:20:15.788Z,5.00
2023-04-23T14:22:45.158Z,6.73
2023-04-23T14:25:17.078Z,4.70
2023-04-23T14:27:47.506Z,5.43
2023-04-23T14:30:18.604Z,5.67
2023-04-23T14:32:49.693Z,5.87
2023-04-23T14:35:24.540Z,5.00
2023-04-23T14:37:55.090Z,5.90
2023-04-23T14:40:25.301Z,5.33
2023-04-23T14:42:56.935Z,5.40
2023-04-23T14:45:33.373Z,4.77
2023-04-23T14:48:02.116Z,5.10
2023-04-23T14:50:31.060Z,4.13
2023-04-23T14:53:00.026Z,4.60
2023-04-23T14:55:31.029Z,6.37
2023-04-23T14:57:59.787Z,6.70
2023-04-23T15:00:29.165Z,6.13
2023-04-23T15:02:58.640Z,9.33
2023-04-23T15:05:27.409Z,7.57
2023-04-23T15:07:55.970Z,8.20
2023-04-23T15:10:25.176Z,8.97
2023-04-23T15:13:04.595Z,7.43
2023-04-23T15:15:47.567Z,8.37
2023-04-23T15:18:16.900Z,9.60
2023-04-23T15:20:46.383Z,8.00
2023-04-23T15:23:15.147Z,7.47
2023-04-23T15:25:44.126Z,7.80
2023-04-23T15:28:14.761Z,7.13
2023-04-23T15:30:45.104Z,9.00
2023-04-23T15:33:14.213Z,8.00
2023-04-23T15:35:43.168Z,8.40
2023-04-23T15:38:13.062Z,8.20
2023-04-23T15:40:42.846Z,7.87
2023-04-23T15:43:12.880Z,8.33
2023-04-23T15:45:49.905Z,7.97
2023-04-23T15:48:21.595Z,7.40
2023-04-23T15:50:50.103Z,8.53
2023-04-23T15:53:20.330Z,7.57
2023-04-23T15:55:49.436Z,6.10
2023-04-23T15:58:18.700Z,5.80
2023-04-23T16:00:48.724Z,5.57
2023-04-23T16:03:17.798Z,5.37
2023-04-23T16:05:48.398Z,5.63
2023-04-23T16:08:17.629Z,4.33
2023-04-23T16:10:46.427Z,4.90
2023-04-23T16:13:15.717Z,4.00
2023-04-23T16:15:44.639Z,3.70
2023-04-23T16:18:17.594Z,4.10
2023-04-23T16:20:46.764Z,2.87
2023-04-23T16:23:15.634Z,3.53
2023-04-23T16:25:44.786Z,3.87
2023-04-23T16:28:15.580Z,2.87
2023-04-23T16:30:44.401Z,3.13
2023-04-23T16:33:14.723Z,3.10
2023-04-23T16:35:43.581Z,3.43
2023-04-23T16:38:13.196Z,2.10
2023-04-23T16:40:42.740Z,2.93
2023-04-23T16:43:11.762Z,2.60
2023-04-23T16:45:41.440Z,3.53
2023-04-23T16:48:14.226Z,3.83
2023-04-23T16:50:44.742Z,4.57
2023-04-23T16:53:14.413Z,4.80
2023-04-23T16:55:43.257Z,2.97
2023-04-23T16:58:12.366Z,3.17
2023-04-23T17:00:42.794Z,2.53
2023-04-23T17:03:16.128Z,2.70
2023-04-23T17:05:50.860Z,5.77
2023-04-23T17:08:20.125Z,5.80
2023-04-23T17:10:48.480Z,4.10
2023-04-23T17:13:16.923Z,3.70
2023-04-23T17:15:46.077Z,4.00
2023-04-23T17:18:15.181Z,2.53
2023-04-23T17:20:45.944Z,2.63
2023-04-23T17:23:14.669Z,4.07
2023-04-23T17:25:43.510Z,3.00
2023-04-23T17:28:12.484Z,3.33
2023-04-23T17:30:41.257Z,2.80
2023-04-23T17:33:09.964Z,2.97
2023-04-23T17:35:38.810Z,2.50
2023-04-23T17:38:09.915Z,1.70
2023-04-23T17:40:39.533Z,2.27
2023-04-23T17:43:08.402Z,2.20
2023-04-23T17:45:36.872Z,2.03
2023-04-23T17:48:06.799Z,1.97
2023-04-23T17:50:35.559Z,2.10
2023-04-23T17:53:05.707Z,2.07
2023-04-23T17:55:36.385Z,1.67
2023-04-23T17:58:05.950Z,2.00
2023-04-23T18:00:37.828Z,2.53
2023-04-23T18:03:09.029Z,2.27
2023-04-23T18:05:38.310Z,1.83
2023-04-23T18:08:08.066Z,2.43
2023-04-23T18:10:38.418Z,1.87
2023-04-23T18:13:09.383Z,2.03
2023-04-23T18:15:38.476Z,2.00
2023-04-23T18:18:07.310Z,2.00
2023-04-23T18:20:38.687Z,2.00
2023-04-23T18:23:08.377Z,1.57
2023-04-23T18:25:39.082Z,1.47
2023-04-23T18:28:08.309Z,2.27
2023-04-23T18:30:38.722Z,2.47
2023-04-23T18:33:14.058Z,1.90
2023-04-23T18:35:44.280Z,1.60
2023-04-23T18:38:13.470Z,2.10
2023-04-23T18:40:46.756Z,4.27
2023-04-23T18:43:15.274Z,8.33
2023-04-23T18:45:44.258Z,8.33
2023-04-23T18:48:41.702Z,4.50
2023-04-23T18:51:21.901Z,2.83
2023-04-23T18:53:50.902Z,2.67
2023-04-23T18:56:20.941Z,4.53
2023-04-23T18:58:49.628Z,4.50
2023-04-23T19:01:19.056Z,8.23
2023-04-23T19:03:48.698Z,7.27
2023-04-23T19:06:17.592Z,5.40
2023-04-23T19:08:46.468Z,3.60
2023-04-23T19:11:15.178Z,3.00
2023-04-23T19:13:45.660Z,3.40
2023-04-23T19:16:16.508Z,2.90
2023-04-23T19:18:45.673Z,2.53
2023-04-23T19:21:14.292Z,3.00
2023-04-23T19:23:43.472Z,2.73
2023-04-23T19:26:12.389Z,2.77
2023-04-23T19:28:41.613Z,2.50
2023-04-23T19:31:12.036Z,3.57
2023-04-23T19:33:42.983Z,3.43
2023-04-23T19:36:11.749Z,3.40
2023-04-23T19:38:40.634Z,3.87
2023-04-23T19:41:09.889Z,3.40
2023-04-23T19:43:39.035Z,2.40
2023-04-23T19:46:08.453Z,2.73
2023-04-23T19:48:38.842Z,2.60
2023-04-23T19:51:11.102Z,2.53
2023-04-23T19:53:40.200Z,2.50
2023-04-23T19:56:13.027Z,2.47
2023-04-23T19:58:42.998Z,2.30
2023-04-23T20:01:13.482Z,2.10
2023-04-23T20:03:48.272Z,2.57
2023-04-23T20:06:17.476Z,2.10
2023-04-23T20:09:06.521Z,2.27
2023-04-23T20:11:35.748Z,2.97
2023-04-23T20:14:04.733Z,3.40
2023-04-23T20:16:34.762Z,3.77
2023-04-23T20:19:05.603Z,4.13
2023-04-23T20:21:35.062Z,3.03
2023-04-23T20:24:03.694Z,2.70
2023-04-23T20:26:33.055Z,2.07
2023-04-23T20:29:01.728Z,2.23
2023-04-23T20:31:31.271Z,2.63
2023-04-23T20:34:00.124Z,3.67
2023-04-23T20:36:31.882Z,3.73
2023-04-23T20:39:03.492Z,3.33
2023-04-23T20:41:34.816Z,3.67
2023-04-23T20:44:03.707Z,4.53
2023-04-23T20:46:34.781Z,3.90
2023-04-23T20:49:03.514Z,2.63
2023-04-23T20:51:34.742Z,2.20
2023-04-23T20:54:04.798Z,2.20
2023-04-23T20:56:33.880Z,1.97
2023-04-23T20:59:03.051Z,2.37
2023-04-23T21:01:31.974Z,3.27
2023-04-23T21:04:01.637Z,2.57
2023-04-23T21:06:31.602Z,2.70
2023-04-23T21:09:02.035Z,2.77
2023-04-23T21:11:31.284Z,2.73
2023-04-23T21:14:00.921Z,2.57
2023-04-23T21:16:30.413Z,2.90
2023-04-23T21:18:59.800Z,2.43
2023-04-23T21:21:30.401Z,2.30
2023-04-23T21:24:00.465Z,2.73
2023-04-23T21:26:31.934Z,2.47
2023-04-23T21:29:00.618Z,2.40
2023-04-23T21:31:36.850Z,2.73
2023-04-23T21:34:06.824Z,3.00
2023-04-23T21:36:36.022Z,2.30
2023-04-23T21:39:05.051Z,2.53
2023-04-23T21:41:41.382Z,3.07
2023-04-23T21:44:10.036Z,3.40
2023-04-23T21:46:39.211Z,3.00
2023-04-23T21:49:08.189Z,10.00
2023-04-23T21:51:38.760Z,5.80
2023-04-23T21:54:07.673Z,5.77
2023-04-23T21:56:38.355Z,5.37
2023-04-23T21:59:09.044Z,4.60
2023-04-23T22:01:37.740Z,4.40
2023-04-23T22:04:08.848Z,4.17
2023-04-23T22:06:39.670Z,5.03
2023-04-23T22:09:08.950Z,9.00
2023-04-23T22:11:37.813Z,9.37
2023-04-23T22:14:08.248Z,8.80
2023-04-23T22:16:37.017Z,7.20
2023-04-23T22:19:05.574Z,6.03
2023-04-23T22:21:34.304Z,3.90
2023-04-23T22:24:04.172Z,3.97
2023-04-23T22:26:34.172Z,2.93
2023-04-23T22:29:02.866Z,3.50
2023-04-23T22:31:32.692Z,2.53
2023-04-23T22:34:01.303Z,3.17
2023-04-23T22:36:29.983Z,2.60
2023-04-23T22:38:58.970Z,3.00
2023-04-23T22:41:27.604Z,2.63
2023-04-23T22:43:56.764Z,2.97
2023-04-23T22:46:26.108Z,3.40
2023-04-23T22:48:56.336Z,2.80
2023-04-23T22:51:25.239Z,2.80
2023-04-23T22:53:54.010Z,3.53
2023-04-23T22:56:22.375Z,3.27
2023-04-23T22:58:52.523Z,2.73
2023-04-23T23:01:21.402Z,2.77
2023-04-23T23:03:50.940Z,2.67
2023-04-23T23:06:21.080Z,2.70
2023-04-23T23:08:50.074Z,2.90
2023-04-23T23:11:19.013Z,3.07
2023-04-23T23:13:48.029Z,2.70
2023-04-23T23:16:17.654Z,2.50
2023-04-23T23:18:46.783Z,2.40
2023-04-23T23:21:16.307Z,2.70
2023-04-23T23:23:46.350Z,3.23
2023-04-23T23:26:15.288Z,2.30
2023-04-23T23:28:44.335Z,2.47
2023-04-23T23:31:13.157Z,2.40
2023-04-23T23:33:42.105Z,2.33
2023-04-23T23:36:12.949Z,3.07
2023-04-23T23:38:41.654Z,2.50
2023-04-23T23:41:12.427Z,2.93
2023-04-23T23:43:41.375Z,2.50
2023-04-23T23:46:10.791Z,3.23
2023-04-23T23:48:39.586Z,2.60
2023-04-23T23:51:08.370Z,2.70
2023-04-23T23:53:37.220Z,3.10
2023-04-23T23:56:06.097Z,2.60
2023-04-23T23:58:36.677Z,2.83
